»·PEaware :: SWA956 KRNO-KOAK

SWA956 :: KRNO-KOAK

FLIGHT INFORMATION

Flight Status: Arrived
Operator:
Southwest Airlines
More flights by this operator :: More flights under this callsign
Pilot: Herb P. (797)
Aircraft: BOEING 737-800
(B738)
More flights by this aircraft type
Origin: KRNO Reno/Tahoe Intl
United States
Destination: KOAK Metro Oakland Intl
United States
More flights between these airports :: More routes between these airports
Route: +ZEFFR6 MRLET OAKES2
File this flight plan on PilotEdge
Remarks:
Altitude:
(Current/Filed)
24,000ft
Speed:
(Current/Filed)
450kts
Departed: 16-Oct-20 09:18 AM
Arrived: 16-Oct-20 09:57 AM
Distance/Time
Traveled:
157nm/0:38
Distance/Time
To Go:
Arrived

Flight Plot

Page will automatically refresh every two minutes.

Flight plan parsing failed; only flown route is shown


Map Options




Map Legend


Flown Route
Filed Route
Departure Airport
Arrival Airport
Navaid (VOR, NDB)
Fix

Horizontal Profiles

Position Reports

Time Latitude Longitude Heading Altitude Ground
Speed
16-Oct-20 08:53 39.506527 -119.773285 0 4425ft 0kts
16-Oct-20 08:54 39.506527 -119.773285 0 4425ft 0kts
16-Oct-20 08:55 39.506527 -119.773285 0 4425ft 0kts
16-Oct-20 08:56 39.506527 -119.773285 0 4425ft 0kts
16-Oct-20 08:57 39.506527 -119.773285 0 4425ft 0kts
16-Oct-20 08:58 39.506527 -119.773285 0 4425ft 0kts
16-Oct-20 08:59 39.506527 -119.773285 0 4425ft 0kts
16-Oct-20 09:00 39.506527 -119.773285 0 4425ft 0kts
16-Oct-20 09:01 39.506527 -119.773285 0 4425ft 0kts
16-Oct-20 09:03 39.506527 -119.773285 0 4425ft 0kts
16-Oct-20 09:04 39.506527 -119.773285 0 4425ft 0kts
16-Oct-20 09:05 39.506527 -119.773285 0 4425ft 0kts
16-Oct-20 09:06 39.506527 -119.773285 0 4425ft 0kts
16-Oct-20 09:07 39.506527 -119.773285 0 4425ft 0kts
16-Oct-20 09:08 39.506527 -119.773285 0 4425ft 0kts
16-Oct-20 09:09 39.506526 -119.773285 0 4425ft 0kts
16-Oct-20 09:10 39.506105 -119.773344 30 4425ft 2kts
16-Oct-20 09:11 39.505900 -119.773853 90 4425ft 0kts
16-Oct-20 09:12 39.505900 -119.773855 90 4425ft 0kts
16-Oct-20 09:13 39.505900 -119.773855 90 4425ft 0kts
16-Oct-20 09:14 39.505885 -119.772335 88 4425ft 11kts
16-Oct-20 09:15 39.510003 -119.771517 0 4425ft 24kts
16-Oct-20 09:16 39.513747 -119.770702 84 4425ft 0kts
16-Oct-20 09:17 39.513750 -119.770648 85 4425ft 4kts
16-Oct-20 09:18 39.497083 -119.769313 181 4546ft 166kts
16-Oct-20 09:19 39.438732 -119.771034 178 6697ft 256kts
16-Oct-20 09:20 39.362003 -119.769607 178 9136ft 288kts
16-Oct-20 09:20 39.319484 -119.771226 185 11595ft 290kts
16-Oct-20 09:22 39.273072 -119.783035 191 14075ft 298kts
16-Oct-20 09:22 39.204950 -119.802907 191 17141ft 318kts
16-Oct-20 09:24 39.096080 -119.834350 192 19496ft 388kts
16-Oct-20 09:24 39.003907 -119.861482 192 19481ft 409kts
16-Oct-20 09:25 38.895994 -119.892402 192 22870ft 390kts
16-Oct-20 09:26 38.787121 -119.921978 192 24476ft 413kts
16-Oct-20 09:27 38.671463 -119.955189 193 24471ft 436kts
16-Oct-20 09:28 38.551446 -119.991754 194 24466ft 448kts
16-Oct-20 09:29 38.430609 -120.028890 193 24466ft 447kts
16-Oct-20 09:30 38.316627 -120.065203 199 24434ft 409kts
16-Oct-20 09:31 38.212106 -120.125476 207 24310ft 413kts
16-Oct-20 09:32 38.110653 -120.193446 208 24220ft 415kts
16-Oct-20 09:33 38.008997 -120.263221 208 24123ft 414kts
16-Oct-20 09:34 37.911826 -120.335916 223 24091ft 389kts
16-Oct-20 09:35 37.866345 -120.458330 254 24081ft 389kts
16-Oct-20 09:36 37.841527 -120.592055 257 24078ft 390kts
16-Oct-20 09:37 37.818291 -120.726766 256 23109ft 388kts
16-Oct-20 09:38 37.796346 -120.855103 256 21006ft 363kts
16-Oct-20 09:39 37.775031 -120.976284 256 18990ft 346kts
16-Oct-20 09:40 37.753800 -121.097382 257 16864ft 345kts
16-Oct-20 09:41 37.733755 -121.212553 258 14923ft 327kts
16-Oct-20 09:42 37.709568 -121.326306 252 12950ft 330kts
16-Oct-20 09:43 37.681526 -121.434126 252 11046ft 316kts
16-Oct-20 09:44 37.656192 -121.531737 253 10283ft 265kts
16-Oct-20 09:45 37.635006 -121.613078 253 9269ft 233kts
16-Oct-20 09:46 37.616239 -121.688612 260 8155ft 218kts
16-Oct-20 09:47 37.610577 -121.762855 265 7098ft 208kts
16-Oct-20 09:48 37.606828 -121.831247 270 6116ft 182kts
16-Oct-20 09:49 37.607340 -121.892751 270 5280ft 184kts
16-Oct-20 09:50 37.607610 -121.954088 269 4403ft 182kts
16-Oct-20 09:51 37.605766 -122.016699 269 3477ft 174kts
16-Oct-20 09:52 37.609030 -122.076830 305 2692ft 167kts
16-Oct-20 09:53 37.639242 -122.121377 312 1943ft 164kts
16-Oct-20 09:54 37.668821 -122.165477 311 1040ft 161kts
16-Oct-20 09:55 37.697611 -122.208514 310 179ft 153kts
16-Oct-20 09:56 37.713654 -122.231219 343 14ft 0kts
16-Oct-20 09:57 37.714906 -122.230676 114 14ft 13kts
16-Oct-20 09:58 37.711203 -122.224358 70 14ft 19kts
16-Oct-20 09:59 37.710844 -122.218673 99 14ft 16kts
16-Oct-20 10:00 37.710974 -122.217085 104 14ft 0kts

Navigation Log

Ident Type
Flight plan parsing failed, navigation log unavailable